Stations météo

réclame
Mon MeteoGroup
Diepenbeek, Belgique (6477): Température de l'air & dewpoint: 14.05.2019 19:00:00 - 20.05.2019 19:00:00 (CEST)Diepenbeek, Belgique (6477): Vitesse du vent & gusts: 14.05.2019 19:00:00 - 20.05.2019 19:00:00 (CEST)Diepenbeek, Belgique (6477): Direction du vent: 14.05.2019 19:00:00 - 20.05.2019 19:00:00 (CEST)Diepenbeek, Belgique (6477): reduced air pressure: 14.05.2019 19:00:00 - 20.05.2019 19:00:00 (CEST)Diepenbeek, Belgique (6477): Ensoleillement: 14.05.2019 19:00:00 - 20.05.2019 19:00:00 (CEST)Diepenbeek, Belgique (6477): Quantités de précipitations: 14.05.2019 19:00:00 - 20.05.2019 19:00:00 (CEST)
Date & Time tt [°C] td [°C] ff [km/h] ff [knt] fx [km/h] fx [knt] dd ppp [hPa] sd [min] rr [mm]
20.05.2019 19:00:00 - - - - - - - - - -
20.05.2019 18:00:00 13,9 12,0 10 5 22 12 WNW 1010,3 0 0,0
20.05.2019 17:00:00 14,0 12,0 14 8 22 12 WNW 1010,0 0 0,0
20.05.2019 16:00:00 14,2 12,1 11 6 26 14 NW 1009,9 0 0,0
20.05.2019 15:00:00 14,3 11,8 10 6 22 12 NW 1009,9 0 0,0
20.05.2019 14:00:00 14,1 11,8 11 6 18 10 NW 1009,9 0 0,0
20.05.2019 13:00:00 13,6 11,4 9 5 19 10 WNW 1009,6 0 0,0
20.05.2019 12:00:00 13,1 11,4 10 5 21 12 NW 1009,2 0 0,0
20.05.2019 11:00:00 13,4 11,6 11 6 19 10 W 1009,0 0 0,0
20.05.2019 10:00:00 13,2 12,0 8 4 16 9 W 1008,8 0 0,0
20.05.2019 09:00:00 12,8 11,6 9 5 14 8 NW 1008,7 0 0,0
20.05.2019 08:00:00 12,5 11,3 7 4 13 7 N 1008,4 0 0,0
20.05.2019 07:00:00 12,4 12,0 4 2 12 7 NW 1008,0 0 0,0
20.05.2019 06:00:00 12,3 12,1 5 3 10 6 WNW 1007,8 0 0,0
20.05.2019 05:00:00 12,4 12,3 7 4 13 7 NNW 1007,7 0 0,0
20.05.2019 04:00:00 12,7 12,7 6 4 12 6 WNW 1007,5 0 0,0
20.05.2019 03:00:00 12,8 12,8 6 3 14 8 NW 1007,5 0 0,0
20.05.2019 02:00:00 12,9 12,8 7 4 13 7 WNW 1007,4 0 0,0
20.05.2019 01:00:00 13,1 12,9 8 5 17 9 NW 1007,5 0 0,0
20.05.2019 00:00:00 13,4 13,0 10 6 16 9 NW 1007,2 0 0,0
19.05.2019 23:00:00 13,7 13,6 6 3 21 11 W 1006,9 0 0,0
19.05.2019 22:00:00 13,9 13,5 4 2 13 7 NNW 1006,6 0 0,0
19.05.2019 21:00:00 13,9 13,1 9 5 19 11 WNW 1006,2 0 1,3
19.05.2019 20:00:00 15,0 13,7 7 4 18 10 NW 1006,6 0 1,1
19.05.2019 19:00:00 16,9 12,8 8 4 19 10 NW 1005,7 0 0,0
19.05.2019 18:00:00 17,1 12,6 12 7 31 17 NW 1005,3 40 0,0
19.05.2019 17:00:00 17,2 14,1 11 6 19 11 NNW 1005,5 0 0,0
19.05.2019 16:00:00 16,9 14,1 14 8 23 13 N 1005,7 1 0,1
19.05.2019 15:00:00 19,1 13,5 13 7 22 12 WSW 1005,3 0 0,0
19.05.2019 14:00:00 20,1 12,7 11 6 20 11 ENE 1005,3 12 0,0
19.05.2019 13:00:00 20,3 13,7 12 7 20 11 NW 1005,6 29 0,0
19.05.2019 12:00:00 19,7 12,9 11 6 21 12 NW 1005,9 55 0,0
19.05.2019 11:00:00 18,3 13,7 5 3 13 7 NNW 1006,1 60 0,0
19.05.2019 10:00:00 16,3 13,7 5 3 14 7 NNE 1006,3 51 0,0
19.05.2019 09:00:00 14,4 13,5 4 2 11 6 NNW 1006,5 5 0,0
19.05.2019 08:00:00 13,3 13,3 4 2 13 7 ENE 1006,6 0 0,4
19.05.2019 07:00:00 12,1 12,1 6 3 8 4 W 1006,5 0 0,0
19.05.2019 06:00:00 11,5 11,5 6 3 8 4 SSW 1006,3 0 0,0
19.05.2019 05:00:00 11,1 11,1 4 2 5 3 SSW 1006,2 0 0,0
19.05.2019 04:00:00 11,9 11,9 4 2 4 2 SW 1006,5 0 0,0
19.05.2019 03:00:00 12,4 12,4 4 2 5 3 SW 1006,7 0 0,0
19.05.2019 02:00:00 12,8 12,8 0 0 4 2 N 1006,9 0 0,0
19.05.2019 01:00:00 12,6 12,6 0 0 4 2 N 1006,9 0 0,0
19.05.2019 00:00:00 13,5 13,3 0 0 7 4 N 1007,1 0 0,0
18.05.2019 23:00:00 14,7 13,8 5 3 9 5 S 1007,3 0 0,0
18.05.2019 22:00:00 15,1 13,7 4 2 9 5 SSW 1007,0 0 0,0
18.05.2019 21:00:00 16,5 13,4 4 2 7 4 WNW 1006,5 0 0,0
18.05.2019 20:00:00 16,7 13,7 4 2 9 5 SSW 1006,4 0 0,0
18.05.2019 19:00:00 17,1 13,2 13 7 21 11 SSW 1006,3 0 0,0
18.05.2019 18:00:00 18,6 12,1 11 6 26 14 ESE 1006,0 12 0,0
18.05.2019 17:00:00 19,8 9,9 8 4 12 7 SSW 1005,6 22 0,0
18.05.2019 16:00:00 21,2 9,7 4 2 15 8 NW 1005,6 46 0,0
18.05.2019 15:00:00 20,3 11,8 7 4 13 7 ESE 1006,0 60 0,0
18.05.2019 14:00:00 18,9 11,5 7 4 15 8 N 1006,1 60 0,0
18.05.2019 13:00:00 17,4 12,3 4 2 10 6 SE 1006,6 60 0,0
18.05.2019 12:00:00 15,0 11,5 7 4 13 7 NNW 1006,8 32 0,0
18.05.2019 11:00:00 13,8 11,3 5 3 9 5 W 1006,7 0 0,0
18.05.2019 10:00:00 12,5 11,2 0 0 6 3 N 1006,9 0 0,0
18.05.2019 09:00:00 11,7 11,2 4 2 7 4 NNE 1006,7 0 0,0
18.05.2019 08:00:00 11,3 11,1 4 2 7 4 N 1006,3 0 0,0
18.05.2019 07:00:00 11,2 11,2 4 2 7 4 NW 1006,1 0 0,0
18.05.2019 06:00:00 11,1 11,1 4 2 6 3 ENE 1005,9 0 0,0
18.05.2019 05:00:00 11,2 11,2 4 2 9 5 ENE 1006,1 0 0,0
18.05.2019 04:00:00 11,2 11,2 5 3 8 4 N 1006,1 0 0,0
18.05.2019 03:00:00 11,3 11,2 5 3 9 5 N 1006,3 0 0,0
18.05.2019 02:00:00 11,3 11,1 4 2 7 4 NNW 1006,4 0 0,0
18.05.2019 01:00:00 11,3 11,1 4 2 6 3 N 1006,6 0 0,0
18.05.2019 00:00:00 11,3 11,1 4 2 8 4 N 1006,6 0 0,0
17.05.2019 23:00:00 11,5 11,1 5 3 9 5 NNW 1006,9 0 0,0
17.05.2019 22:00:00 11,7 11,1 6 3 8 4 NNW 1006,9 0 0,0
17.05.2019 21:00:00 11,7 11,0 5 3 8 4 N 1006,6 0 0,0
17.05.2019 20:00:00 12,0 10,9 4 2 9 5 N 1006,5 0 0,1
17.05.2019 19:00:00 12,3 10,2 6 4 8 5 E 1006,5 0 0,0
17.05.2019 18:00:00 12,5 10,0 5 3 13 7 E 1006,8 0 0,0
17.05.2019 17:00:00 12,2 9,8 8 5 16 8 ENE 1006,9 0 0,0
17.05.2019 16:00:00 12,3 9,3 8 4 14 8 ENE 1007,2 0 0,0
17.05.2019 15:00:00 12,0 8,5 7 4 13 7 ENE 1007,5 0 0,0
17.05.2019 14:00:00 11,6 8,4 7 4 17 9 ENE 1007,6 0 0,0
17.05.2019 13:00:00 11,2 8,3 11 6 22 12 E 1007,7 0 0,0
17.05.2019 12:00:00 11,0 8,3 11 6 20 11 ENE 1007,8 0 0,0
17.05.2019 11:00:00 10,6 8,2 11 6 23 12 E 1008,2 0 0,0
17.05.2019 10:00:00 10,1 8,2 14 8 21 12 E 1008,5 0 0,0
17.05.2019 09:00:00 9,6 8,2 12 6 21 12 E 1008,9 0 0,0
17.05.2019 08:00:00 9,3 8,5 7 4 15 8 ENE 1009,0 0 0,0
17.05.2019 07:00:00 9,2 8,2 9 5 16 8 ENE 1009,2 0 0,0
17.05.2019 06:00:00 9,0 8,3 9 5 19 11 ENE 1009,3 0 0,0
17.05.2019 05:00:00 9,3 8,5 8 5 16 9 ENE 1009,6 0 0,0
17.05.2019 04:00:00 9,5 8,5 8 5 14 8 ENE 1010,0 0 0,2
17.05.2019 03:00:00 9,9 8,1 8 4 19 11 E 1010,7 0 0,1
17.05.2019 02:00:00 10,8 6,7 11 6 23 13 E 1011,3 0 0,0
17.05.2019 01:00:00 11,6 6,2 16 9 26 14 ENE 1011,8 0 0,0
17.05.2019 00:00:00 11,4 7,0 5 3 9 5 ENE 1012,5 0 0,0
16.05.2019 23:00:00 10,9 5,7 4 2 6 4 ESE 1012,9 0 0,0
16.05.2019 22:00:00 12,4 5,5 5 3 18 10 ESE 1012,9 0 0,0
16.05.2019 21:00:00 14,2 6,0 11 6 31 17 E 1013,2 59 0,0
16.05.2019 20:00:00 15,2 6,4 18 10 33 18 NE 1013,3 47 0,0
16.05.2019 19:00:00 16,2 6,8 15 8 36 19 ENE 1013,7 60 0,0
16.05.2019 18:00:00 17,0 6,5 16 8 29 16 NE 1014,4 60 0,0
16.05.2019 17:00:00 16,4 5,6 16 9 29 16 NNE 1015,3 60 0,0
16.05.2019 16:00:00 16,0 4,2 15 8 29 16 NE 1016,3 60 0,0
16.05.2019 15:00:00 16,1 3,7 14 8 30 16 ENE 1016,9 40 0,0
16.05.2019 14:00:00 15,2 4,0 14 8 27 15 ENE 1017,6 50 0,0
16.05.2019 13:00:00 14,2 1,7 18 10 32 17 NNE 1018,3 30 0,0
16.05.2019 12:00:00 15,2 3,0 15 8 34 18 NNE 1018,7 60 0,0
16.05.2019 11:00:00 13,6 3,2 10 5 26 14 ENE 1019,1 57 0,0
16.05.2019 10:00:00 13,0 3,1 16 9 29 16 NE 1020,0 57 0,0
16.05.2019 09:00:00 10,6 4,0 8 4 13 7 NE 1020,4 2 0,0
16.05.2019 08:00:00 8,1 5,9 4 2 6 4 NE 1020,8 0 0,0
16.05.2019 07:00:00 4,0 3,4 4 2 4 2 WNW 1021,3 0 0,0
16.05.2019 06:00:00 3,5 2,2 0 0 5 3 N 1021,4 0 0,0
16.05.2019 05:00:00 4,5 2,2 0 0 9 5 N 1021,6 0 0,0
16.05.2019 04:00:00 7,7 1,9 5 3 13 7 ENE 1021,7 0 0,0
16.05.2019 03:00:00 9,1 1,9 10 5 17 9 NE 1022,1 0 0,0
16.05.2019 02:00:00 10,5 1,4 11 6 19 11 ENE 1022,3 0 0,0
16.05.2019 01:00:00 11,0 1,0 8 5 18 10 ENE 1022,6 0 0,0
16.05.2019 00:00:00 11,0 0,9 6 3 18 10 ENE 1023,0 0 0,0
15.05.2019 23:00:00 11,9 0,9 10 6 18 10 NE 1023,3 0 0,0
15.05.2019 22:00:00 12,9 0,5 10 5 22 12 NE 1023,5 0 0,0
15.05.2019 21:00:00 14,6 -0,2 13 7 28 15 NE 1023,4 48 0,0
15.05.2019 20:00:00 15,7 -1,1 18 10 31 17 ENE 1023,3 60 0,0
15.05.2019 19:00:00 16,2 -1,0 19 10 35 19 ENE 1023,5 60 0,0
15.05.2019 18:00:00 16,4 -0,8 16 9 34 19 E 1023,6 60 0,0
15.05.2019 17:00:00 16,4 -2,4 22 12 35 19 E 1024,2 60 0,0
15.05.2019 16:00:00 16,4 -2,9 23 12 37 20 ENE 1024,7 60 0,0
15.05.2019 15:00:00 16,0 -3,1 17 9 36 19 E 1025,0 60 0,0
15.05.2019 14:00:00 15,4 -3,5 18 10 34 19 E 1025,6 60 0,0
15.05.2019 13:00:00 15,2 -1,0 19 10 34 19 NE 1026,2 60 0,0
15.05.2019 12:00:00 14,3 1,3 17 9 32 17 NNE 1026,8 60 0,0
15.05.2019 11:00:00 13,6 1,2 14 7 29 15 E 1027,5 60 0,0
15.05.2019 10:00:00 12,6 2,6 12 6 18 10 E 1027,8 60 0,0
15.05.2019 09:00:00 11,8 3,8 7 4 11 6 E 1028,2 60 0,0
15.05.2019 08:00:00 7,1 5,3 0 0 4 2 N 1028,3 60 0,0
15.05.2019 07:00:00 2,4 2,0 4 2 4 2 S 1028,6 43 0,0
15.05.2019 06:00:00 2,0 1,7 0 0 1 1 N 1028,5 0 0,0
15.05.2019 05:00:00 2,4 2,1 0 0 5 3 N 1028,5 0 0,0
15.05.2019 04:00:00 3,1 2,2 0 0 4 2 N 1028,5 0 0,0
15.05.2019 03:00:00 4,1 2,6 0 0 4 2 N 1028,7 0 0,0
15.05.2019 02:00:00 5,5 3,7 4 2 9 5 SW 1029,1 0 0,0
15.05.2019 01:00:00 - - - - - - - - - -
15.05.2019 00:00:00 - - - - - - - - 0 -
14.05.2019 23:00:00 11,4 1,9 5 3 18 10 NE 1029,5 0 0,0
14.05.2019 22:00:00 12,6 2,0 8 4 22 12 NE 1029,4 0 0,0
14.05.2019 21:00:00 14,4 1,6 16 8 29 16 NE 1029,3 57 0,0
14.05.2019 20:00:00 15,2 1,8 18 10 32 17 ENE 1029,5 60 0,0
14.05.2019 19:00:00 15,7 2,3 19 10 36 19 ENE 1029,8 60 0,0

tt = Température de l'air
td = dewpoint
ff = Vitesse du vent
fx = gusts
dd = Direction du vent
ppp = reduced air pressure
sd = Ensoleillement
rr = Quantités de précipitations

stations d'obs. à proximité